Terminal Aerodrome Forecast
Issued by NWS

Home | Current Version | Previous Version | Text Only | Print | Product List | Glossary On
Versions: 1 2 3 4 5 6 7 8 9 10 11 12 13 14 15 16 17 18
000
FTUS46 KLOX 031735
TAFLGB
TAF
KLGB 031735Z 0318/0418 VRB05KT P6SM OVC030
     FM031930 20006KT P6SM SCT035
     FM040300 18008KT P6SM BKN025
     FM040800 VRB05KT P6SM OVC020
     FM041700 25006KT P6SM BKN030
      AMD NOT SKED=

USA.gov is the U.S. government's official web portal to all federal, state and local government web resources and services.